Benzonia, Michigan
Current Conditions -  °F | °C
As of 11:13 AM on Thursday 23 Oct 2014 (Local Time) from KFKS Reporting Station
Clear Clear  
Wind Chill: 48°   Ceiling: Unl
Heat Index: 49°   Visibility: 10mi
Dew Point: 41°   Wind: 5mph
Humidity: 74%   Direction: 160°SSE
Pressure: 30.19"   Gusts: NA
Location:  44.62°N, 86.1°W
Report Text: KFKS 231513Z AUTO 16004KT 10SM CLR 10/05 A3019 RMK AO2 T00960052
Loading
Personal Weather Stations






























Interactive Weather Map
Tropical Storm Tracking
New forecast layout! Learn more

10-Day Weather Forecast

Advertisements
Track Severe Weather on mobile